sensor_id;sensor_type;location;lat;lon;timestamp;temperature;humidity
31769;DHT22;18342;52.132;21.048;2022-09-17T00:01:21;12.60;99.90
31769;DHT22;18342;52.132;21.048;2022-09-17T00:03:51;12.50;99.90
31769;DHT22;18342;52.132;21.048;2022-09-17T00:06:19;12.60;99.90
31769;DHT22;18342;52.132;21.048;2022-09-17T00:08:44;12.60;99.90
31769;DHT22;18342;52.132;21.048;2022-09-17T00:11:23;12.60;99.90
31769;DHT22;18342;52.132;21.048;2022-09-17T00:13:50;12.60;99.90
31769;DHT22;18342;52.132;21.048;2022-09-17T00:18:53;12.70;99.90
31769;DHT22;18342;52.132;21.048;2022-09-17T00:21:20;12.70;99.90
31769;DHT22;18342;52.132;21.048;2022-09-17T00:23:46;12.60;99.90
31769;DHT22;18342;52.132;21.048;2022-09-17T00:26:12;12.60;99.90
31769;DHT22;18342;52.132;21.048;2022-09-17T00:28:37;12.60;99.90
31769;DHT22;18342;52.132;21.048;2022-09-17T00:31:09;12.60;99.90
31769;DHT22;18342;52.132;21.048;2022-09-17T00:33:35;12.60;99.90
31769;DHT22;18342;52.132;21.048;2022-09-17T00:36:03;12.70;99.90
31769;DHT22;18342;52.132;21.048;2022-09-17T00:38:29;12.70;99.90
31769;DHT22;18342;52.132;21.048;2022-09-17T00:40:55;12.60;99.90
31769;DHT22;18342;52.132;21.048;2022-09-17T00:43:53;12.60;99.90
31769;DHT22;18342;52.132;21.048;2022-09-17T00:48:57;12.50;99.90
31769;DHT22;18342;52.132;21.048;2022-09-17T00:51:38;12.50;99.90
31769;DHT22;18342;52.132;21.048;2022-09-17T00:54:07;12.50;99.90
31769;DHT22;18342;52.132;21.048;2022-09-17T00:56:36;12.40;99.90
31769;DHT22;18342;52.132;21.048;2022-09-17T00:59:03;12.40;99.90
31769;DHT22;18342;52.132;21.048;2022-09-17T01:01:30;12.30;99.90
31769;DHT22;18342;52.132;21.048;2022-09-17T01:03:56;12.30;99.90
31769;DHT22;18342;52.132;21.048;2022-09-17T01:06:34;12.30;99.90
31769;DHT22;18342;52.132;21.048;2022-09-17T01:09:26;12.20;99.90
31769;DHT22;18342;52.132;21.048;2022-09-17T01:20:08;12.20;99.90
31769;DHT22;18342;52.132;21.048;2022-09-17T01:25:33;12.20;99.90
31769;DHT22;18342;52.132;21.048;2022-09-17T01:28:26;12.20;99.90
31769;DHT22;18342;52.132;21.048;2022-09-17T01:39:16;12.30;99.90
31769;DHT22;18342;52.132;21.048;2022-09-17T01:42:06;12.30;99.90
31769;DHT22;18342;52.132;21.048;2022-09-17T01:44:43;12.20;99.90
31769;DHT22;18342;52.132;21.048;2022-09-17T01:47:26;12.20;99.90
31769;DHT22;18342;52.132;21.048;2022-09-17T01:50:00;12.20;99.90
31769;DHT22;18342;52.132;21.048;2022-09-17T01:52:27;12.20;99.90
31769;DHT22;18342;52.132;21.048;2022-09-17T01:54:55;12.20;99.90
31769;DHT22;18342;52.132;21.048;2022-09-17T02:00:10;12.20;99.90
31769;DHT22;18342;52.132;21.048;2022-09-17T02:07:54;12.10;99.90
31769;DHT22;18342;52.132;21.048;2022-09-17T02:10:24;12.10;99.90
31769;DHT22;18342;52.132;21.048;2022-09-17T02:13:05;12.10;99.90
31769;DHT22;18342;52.132;21.048;2022-09-17T02:15:39;12.20;99.90
31769;DHT22;18342;52.132;21.048;2022-09-17T02:21:00;12.10;99.90
31769;DHT22;18342;52.132;21.048;2022-09-17T02:23:32;12.10;99.90
31769;DHT22;18342;52.132;21.048;2022-09-17T02:26:07;12.00;99.90
31769;DHT22;18342;52.132;21.048;2022-09-17T02:31:03;12.00;99.90
31769;DHT22;18342;52.132;21.048;2022-09-17T02:33:29;11.90;99.90
31769;DHT22;18342;52.132;21.048;2022-09-17T02:35:57;11.80;99.90
31769;DHT22;18342;52.132;21.048;2022-09-17T02:38:28;11.80;99.90
31769;DHT22;18342;52.132;21.048;2022-09-17T02:41:04;11.70;99.90
31769;DHT22;18342;52.132;21.048;2022-09-17T02:43:37;11.60;99.90
31769;DHT22;18342;52.132;21.048;2022-09-17T02:54:27;11.50;99.90
31769;DHT22;18342;52.132;21.048;2022-09-17T02:59:51;11.50;99.90
31769;DHT22;18342;52.132;21.048;2022-09-17T03:02:27;11.60;99.90
31769;DHT22;18342;52.132;21.048;2022-09-17T03:04:53;11.60;99.90
31769;DHT22;18342;52.132;21.048;2022-09-17T03:07:22;11.60;99.90
31769;DHT22;18342;52.132;21.048;2022-09-17T03:09:48;11.50;99.90
31769;DHT22;18342;52.132;21.048;2022-09-17T03:12:14;11.60;99.90
31769;DHT22;18342;52.132;21.048;2022-09-17T03:14:40;11.50;99.90
31769;DHT22;18342;52.132;21.048;2022-09-17T03:17:06;11.60;99.90
31769;DHT22;18342;52.132;21.048;2022-09-17T03:19:32;11.50;99.90
31769;DHT22;18342;52.132;21.048;2022-09-17T03:21:57;11.50;99.90
31769;DHT22;18342;52.132;21.048;2022-09-17T03:24:23;11.60;99.90
31769;DHT22;18342;52.132;21.048;2022-09-17T03:26:49;11.50;99.90
31769;DHT22;18342;52.132;21.048;2022-09-17T03:29:15;11.60;99.90
31769;DHT22;18342;52.132;21.048;2022-09-17T03:31:41;11.60;99.90
31769;DHT22;18342;52.132;21.048;2022-09-17T03:34:06;11.60;99.90
31769;DHT22;18342;52.132;21.048;2022-09-17T03:36:32;11.60;99.90
31769;DHT22;18342;52.132;21.048;2022-09-17T03:38:59;11.60;99.90
31769;DHT22;18342;52.132;21.048;2022-09-17T03:41:25;11.60;99.90
31769;DHT22;18342;52.132;21.048;2022-09-17T03:43:51;11.60;99.90
31769;DHT22;18342;52.132;21.048;2022-09-17T03:46:18;11.60;99.90
31769;DHT22;18342;52.132;21.048;2022-09-17T03:48:44;11.60;99.90
31769;DHT22;18342;52.132;21.048;2022-09-17T03:51:10;11.60;99.90
31769;DHT22;18342;52.132;21.048;2022-09-17T03:53:35;11.70;99.90
31769;DHT22;18342;52.132;21.048;2022-09-17T03:56:04;11.70;99.90
31769;DHT22;18342;52.132;21.048;2022-09-17T04:00:56;11.60;99.90
31769;DHT22;18342;52.132;21.048;2022-09-17T04:03:26;11.60;99.90
31769;DHT22;18342;52.132;21.048;2022-09-17T04:05:53;11.50;99.90
31769;DHT22;18342;52.132;21.048;2022-09-17T04:08:19;11.50;99.90
31769;DHT22;18342;52.132;21.048;2022-09-17T04:10:45;11.50;99.90
31769;DHT22;18342;52.132;21.048;2022-09-17T04:13:13;11.50;99.90
31769;DHT22;18342;52.132;21.048;2022-09-17T04:15:39;11.50;99.90
31769;DHT22;18342;52.132;21.048;2022-09-17T04:18:05;11.50;99.90
31769;DHT22;18342;52.132;21.048;2022-09-17T04:20:31;11.40;99.90
31769;DHT22;18342;52.132;21.048;2022-09-17T04:22:57;11.40;99.90
31769;DHT22;18342;52.132;21.048;2022-09-17T04:25:23;11.50;99.90
31769;DHT22;18342;52.132;21.048;2022-09-17T04:27:49;11.40;99.90
31769;DHT22;18342;52.132;21.048;2022-09-17T04:30:15;11.40;99.90
31769;DHT22;18342;52.132;21.048;2022-09-17T04:32:42;11.50;99.90
31769;DHT22;18342;52.132;21.048;2022-09-17T04:35:09;11.50;99.90
31769;DHT22;18342;52.132;21.048;2022-09-17T04:37:34;11.40;99.90
31769;DHT22;18342;52.132;21.048;2022-09-17T04:40:01;11.40;99.90
31769;DHT22;18342;52.132;21.048;2022-09-17T04:42:27;11.40;99.90
31769;DHT22;18342;52.132;21.048;2022-09-17T04:44:52;11.40;99.90
31769;DHT22;18342;52.132;21.048;2022-09-17T04:47:18;11.40;99.90
31769;DHT22;18342;52.132;21.048;2022-09-17T04:49:44;11.30;99.90
31769;DHT22;18342;52.132;21.048;2022-09-17T04:52:09;11.20;99.90
31769;DHT22;18342;52.132;21.048;2022-09-17T04:54:35;11.30;99.90
31769;DHT22;18342;52.132;21.048;2022-09-17T04:57:01;11.20;99.90
31769;DHT22;18342;52.132;21.048;2022-09-17T04:59:27;11.30;99.90
31769;DHT22;18342;52.132;21.048;2022-09-17T05:01:52;11.20;99.90
31769;DHT22;18342;52.132;21.048;2022-09-17T05:04:19;11.20;99.90
31769;DHT22;18342;52.132;21.048;2022-09-17T05:06:45;11.30;99.90
31769;DHT22;18342;52.132;21.048;2022-09-17T05:09:10;11.30;99.90
31769;DHT22;18342;52.132;21.048;2022-09-17T05:11:36;11.30;99.90
31769;DHT22;18342;52.132;21.048;2022-09-17T05:14:02;11.30;99.90
31769;DHT22;18342;52.132;21.048;2022-09-17T05:16:28;11.40;99.90
31769;DHT22;18342;52.132;21.048;2022-09-17T05:18:53;11.40;99.90
31769;DHT22;18342;52.132;21.048;2022-09-17T05:21:20;11.40;99.90
31769;DHT22;18342;52.132;21.048;2022-09-17T05:23:46;11.40;99.90
31769;DHT22;18342;52.132;21.048;2022-09-17T05:26:12;11.40;99.90
31769;DHT22;18342;52.132;21.048;2022-09-17T05:28:38;11.40;99.90
31769;DHT22;18342;52.132;21.048;2022-09-17T05:31:04;11.40;99.90
31769;DHT22;18342;52.132;21.048;2022-09-17T05:33:30;11.50;99.90
31769;DHT22;18342;52.132;21.048;2022-09-17T05:35:55;11.50;99.90
31769;DHT22;18342;52.132;21.048;2022-09-17T05:38:21;11.50;99.90
31769;DHT22;18342;52.132;21.048;2022-09-17T05:40:47;11.50;99.90
31769;DHT22;18342;52.132;21.048;2022-09-17T05:43:16;11.50;99.90
31769;DHT22;18342;52.132;21.048;2022-09-17T05:45:42;11.60;99.90
31769;DHT22;18342;52.132;21.048;2022-09-17T05:48:11;11.70;99.90
31769;DHT22;18342;52.132;21.048;2022-09-17T05:50:36;11.70;99.90
31769;DHT22;18342;52.132;21.048;2022-09-17T05:53:07;11.80;99.90
31769;DHT22;18342;52.132;21.048;2022-09-17T05:55:34;11.90;99.90
31769;DHT22;18342;52.132;21.048;2022-09-17T05:58:07;12.00;99.90
31769;DHT22;18342;52.132;21.048;2022-09-17T06:00:32;12.10;99.90
31769;DHT22;18342;52.132;21.048;2022-09-17T06:02:58;12.30;99.90
31769;DHT22;18342;52.132;21.048;2022-09-17T06:05:24;12.40;99.90
31769;DHT22;18342;52.132;21.048;2022-09-17T06:07:50;12.50;99.90
31769;DHT22;18342;52.132;21.048;2022-09-17T06:10:16;12.60;99.90
31769;DHT22;18342;52.132;21.048;2022-09-17T06:12:42;12.70;99.90
31769;DHT22;18342;52.132;21.048;2022-09-17T06:15:08;12.80;99.90
31769;DHT22;18342;52.132;21.048;2022-09-17T06:17:34;12.90;99.90
31769;DHT22;18342;52.132;21.048;2022-09-17T06:20:01;13.00;99.90
31769;DHT22;18342;52.132;21.048;2022-09-17T06:22:26;13.10;99.90
31769;DHT22;18342;52.132;21.048;2022-09-17T06:24:52;13.20;99.90
31769;DHT22;18342;52.132;21.048;2022-09-17T06:27:18;13.20;99.90
31769;DHT22;18342;52.132;21.048;2022-09-17T06:29:43;13.30;99.90
31769;DHT22;18342;52.132;21.048;2022-09-17T06:32:09;13.30;99.90
31769;DHT22;18342;52.132;21.048;2022-09-17T06:34:38;13.40;99.90
31769;DHT22;18342;52.132;21.048;2022-09-17T06:37:04;13.50;99.90
31769;DHT22;18342;52.132;21.048;2022-09-17T06:39:30;13.50;99.90
31769;DHT22;18342;52.132;21.048;2022-09-17T06:41:56;13.60;99.90
31769;DHT22;18342;52.132;21.048;2022-09-17T06:44:21;13.60;99.90
31769;DHT22;18342;52.132;21.048;2022-09-17T06:46:50;13.70;99.90
31769;DHT22;18342;52.132;21.048;2022-09-17T06:49:17;13.70;99.90
31769;DHT22;18342;52.132;21.048;2022-09-17T06:51:43;13.80;99.90
31769;DHT22;18342;52.132;21.048;2022-09-17T06:54:09;13.80;99.90
31769;DHT22;18342;52.132;21.048;2022-09-17T06:56:35;13.80;99.90
31769;DHT22;18342;52.132;21.048;2022-09-17T06:59:01;13.80;99.90
31769;DHT22;18342;52.132;21.048;2022-09-17T07:01:26;13.80;99.90
31769;DHT22;18342;52.132;21.048;2022-09-17T07:03:52;13.90;99.90
31769;DHT22;18342;52.132;21.048;2022-09-17T07:06:19;13.90;99.90
31769;DHT22;18342;52.132;21.048;2022-09-17T07:08:45;13.90;99.90
31769;DHT22;18342;52.132;21.048;2022-09-17T07:11:12;13.90;99.90
31769;DHT22;18342;52.132;21.048;2022-09-17T07:13:38;14.00;99.90
31769;DHT22;18342;52.132;21.048;2022-09-17T07:16:04;14.00;99.90
31769;DHT22;18342;52.132;21.048;2022-09-17T07:18:31;14.00;99.90
31769;DHT22;18342;52.132;21.048;2022-09-17T07:20:58;13.90;99.90
31769;DHT22;18342;52.132;21.048;2022-09-17T07:23:27;13.90;99.90
31769;DHT22;18342;52.132;21.048;2022-09-17T07:25:54;13.80;99.90
31769;DHT22;18342;52.132;21.048;2022-09-17T07:28:20;13.80;99.90
31769;DHT22;18342;52.132;21.048;2022-09-17T07:30:47;13.80;99.90
31769;DHT22;18342;52.132;21.048;2022-09-17T07:33:14;13.80;99.90
31769;DHT22;18342;52.132;21.048;2022-09-17T07:35:40;13.70;99.90
31769;DHT22;18342;52.132;21.048;2022-09-17T07:38:06;13.70;99.90
31769;DHT22;18342;52.132;21.048;2022-09-17T07:40:32;13.70;99.90
31769;DHT22;18342;52.132;21.048;2022-09-17T07:42:57;13.60;99.90
31769;DHT22;18342;52.132;21.048;2022-09-17T07:45:23;13.60;99.90
31769;DHT22;18342;52.132;21.048;2022-09-17T07:47:49;13.60;99.90
31769;DHT22;18342;52.132;21.048;2022-09-17T07:50:15;13.50;99.90
31769;DHT22;18342;52.132;21.048;2022-09-17T07:52:47;13.50;99.90
31769;DHT22;18342;52.132;21.048;2022-09-17T07:55:14;13.50;99.90
31769;DHT22;18342;52.132;21.048;2022-09-17T07:57:40;13.50;99.90
31769;DHT22;18342;52.132;21.048;2022-09-17T08:00:06;13.50;99.90
31769;DHT22;18342;52.132;21.048;2022-09-17T08:02:32;13.40;99.90
31769;DHT22;18342;52.132;21.048;2022-09-17T08:04:58;13.50;99.90
31769;DHT22;18342;52.132;21.048;2022-09-17T08:07:24;13.50;99.90
31769;DHT22;18342;52.132;21.048;2022-09-17T08:09:49;13.50;99.90
31769;DHT22;18342;52.132;21.048;2022-09-17T08:12:15;13.50;99.90
31769;DHT22;18342;52.132;21.048;2022-09-17T08:14:42;13.50;99.90
31769;DHT22;18342;52.132;21.048;2022-09-17T08:17:08;13.60;99.90
31769;DHT22;18342;52.132;21.048;2022-09-17T08:19:34;13.50;99.90
31769;DHT22;18342;52.132;21.048;2022-09-17T08:22:00;13.50;99.90
31769;DHT22;18342;52.132;21.048;2022-09-17T08:24:26;13.60;99.90
31769;DHT22;18342;52.132;21.048;2022-09-17T08:26:52;13.60;99.90
31769;DHT22;18342;52.132;21.048;2022-09-17T08:29:18;13.60;99.90
31769;DHT22;18342;52.132;21.048;2022-09-17T08:31:43;13.60;99.90
31769;DHT22;18342;52.132;21.048;2022-09-17T08:34:09;13.70;99.90
31769;DHT22;18342;52.132;21.048;2022-09-17T08:36:35;13.70;99.90
31769;DHT22;18342;52.132;21.048;2022-09-17T08:39:01;13.70;99.90
31769;DHT22;18342;52.132;21.048;2022-09-17T08:41:48;13.70;99.90
31769;DHT22;18342;52.132;21.048;2022-09-17T08:47:02;13.70;99.90
31769;DHT22;18342;52.132;21.048;2022-09-17T09:00:16;13.70;99.90
31769;DHT22;18342;52.132;21.048;2022-09-17T09:05:46;13.70;99.90
31769;DHT22;18342;52.132;21.048;2022-09-17T09:10:50;13.80;99.90
31769;DHT22;18342;52.132;21.048;2022-09-17T09:13:19;13.90;99.90
31769;DHT22;18342;52.132;21.048;2022-09-17T09:18:30;13.90;99.90
31769;DHT22;18342;52.132;21.048;2022-09-17T09:35:33;13.90;99.90
31769;DHT22;18342;52.132;21.048;2022-09-17T09:44:04;14.00;99.90
31769;DHT22;18342;52.132;21.048;2022-09-17T09:52:18;14.10;99.90
31769;DHT22;18342;52.132;21.048;2022-09-17T09:54:58;14.10;99.90
31769;DHT22;18342;52.132;21.048;2022-09-17T09:57:45;14.10;99.90
31769;DHT22;18342;52.132;21.048;2022-09-17T10:00:21;14.10;99.90
31769;DHT22;18342;52.132;21.048;2022-09-17T10:03:00;14.10;99.90
31769;DHT22;18342;52.132;21.048;2022-09-17T10:05:29;14.10;99.90
31769;DHT22;18342;52.132;21.048;2022-09-17T10:07:55;14.10;99.90
31769;DHT22;18342;52.132;21.048;2022-09-17T10:10:21;14.10;99.90
31769;DHT22;18342;52.132;21.048;2022-09-17T10:12:47;14.10;99.90
31769;DHT22;18342;52.132;21.048;2022-09-17T10:15:27;14.20;99.90
31769;DHT22;18342;52.132;21.048;2022-09-17T10:18:32;14.20;99.90
31769;DHT22;18342;52.132;21.048;2022-09-17T10:20:59;14.20;99.90
31769;DHT22;18342;52.132;21.048;2022-09-17T10:23:27;14.20;99.90
31769;DHT22;18342;52.132;21.048;2022-09-17T10:25:55;14.30;99.90
31769;DHT22;18342;52.132;21.048;2022-09-17T10:28:28;14.30;99.90
31769;DHT22;18342;52.132;21.048;2022-09-17T10:31:00;14.30;99.90
31769;DHT22;18342;52.132;21.048;2022-09-17T10:33:32;14.30;99.90
31769;DHT22;18342;52.132;21.048;2022-09-17T10:36:04;14.30;99.90
31769;DHT22;18342;52.132;21.048;2022-09-17T10:38:38;14.30;99.90
31769;DHT22;18342;52.132;21.048;2022-09-17T10:41:12;14.20;99.90
31769;DHT22;18342;52.132;21.048;2022-09-17T10:43:38;14.20;99.90
31769;DHT22;18342;52.132;21.048;2022-09-17T10:46:08;14.20;99.90
31769;DHT22;18342;52.132;21.048;2022-09-17T10:48:39;14.20;99.90
31769;DHT22;18342;52.132;21.048;2022-09-17T10:51:07;14.30;99.90
31769;DHT22;18342;52.132;21.048;2022-09-17T10:56:28;14.30;99.90
31769;DHT22;18342;52.132;21.048;2022-09-17T11:05:33;14.40;99.90
31769;DHT22;18342;52.132;21.048;2022-09-17T11:08:27;14.40;99.90
31769;DHT22;18342;52.132;21.048;2022-09-17T11:28:12;14.40;99.90
31769;DHT22;18342;52.132;21.048;2022-09-17T11:31:02;14.40;99.90
31769;DHT22;18342;52.132;21.048;2022-09-17T11:36:26;14.40;99.90
31769;DHT22;18342;52.132;21.048;2022-09-17T11:38:55;14.40;99.90
31769;DHT22;18342;52.132;21.048;2022-09-17T11:41:26;14.40;99.90
31769;DHT22;18342;52.132;21.048;2022-09-17T11:46:46;14.30;99.90
31769;DHT22;18342;52.132;21.048;2022-09-17T11:52:26;14.30;99.90
31769;DHT22;18342;52.132;21.048;2022-09-17T11:57:44;14.30;99.90
31769;DHT22;18342;52.132;21.048;2022-09-17T12:00:18;14.30;99.90
31769;DHT22;18342;52.132;21.048;2022-09-17T12:03:12;14.40;99.90
31769;DHT22;18342;52.132;21.048;2022-09-17T12:05:54;14.40;99.90
31769;DHT22;18342;52.132;21.048;2022-09-17T12:08:38;14.50;99.90
31769;DHT22;18342;52.132;21.048;2022-09-17T12:13:48;14.60;99.90
31769;DHT22;18342;52.132;21.048;2022-09-17T12:19:01;14.70;99.90
31769;DHT22;18342;52.132;21.048;2022-09-17T12:24:22;14.70;99.90
31769;DHT22;18342;52.132;21.048;2022-09-17T12:27:08;14.70;99.90
31769;DHT22;18342;52.132;21.048;2022-09-17T12:37:42;14.80;99.90
31769;DHT22;18342;52.132;21.048;2022-09-17T12:45:36;14.80;99.90
31769;DHT22;18342;52.132;21.048;2022-09-17T12:53:42;14.80;99.90
31769;DHT22;18342;52.132;21.048;2022-09-17T13:13:13;14.80;99.90
31769;DHT22;18342;52.132;21.048;2022-09-17T13:16:08;14.80;99.90
31769;DHT22;18342;52.132;21.048;2022-09-17T13:24:22;14.80;99.90
31769;DHT22;18342;52.132;21.048;2022-09-17T13:26:54;14.70;99.90
31769;DHT22;18342;52.132;21.048;2022-09-17T13:32:08;14.70;99.90
31769;DHT22;18342;52.132;21.048;2022-09-17T13:34:33;14.70;99.90
31769;DHT22;18342;52.132;21.048;2022-09-17T13:37:04;14.70;99.90
31769;DHT22;18342;52.132;21.048;2022-09-17T13:39:46;14.60;99.90
31769;DHT22;18342;52.132;21.048;2022-09-17T13:42:27;14.60;99.90
31769;DHT22;18342;52.132;21.048;2022-09-17T13:45:16;14.60;99.90
31769;DHT22;18342;52.132;21.048;2022-09-17T13:48:03;14.60;99.90
31769;DHT22;18342;52.132;21.048;2022-09-17T13:50:39;14.60;99.90
31769;DHT22;18342;52.132;21.048;2022-09-17T13:55:46;14.50;99.90
31769;DHT22;18342;52.132;21.048;2022-09-17T14:24:44;14.50;99.90
31769;DHT22;18342;52.132;21.048;2022-09-17T14:30:23;14.60;99.90
31769;DHT22;18342;52.132;21.048;2022-09-17T14:35:47;14.50;99.90
31769;DHT22;18342;52.132;21.048;2022-09-17T14:40:52;14.60;99.90
31769;DHT22;18342;52.132;21.048;2022-09-17T14:43:37;14.50;99.90
31769;DHT22;18342;52.132;21.048;2022-09-17T14:46:07;14.60;99.90
31769;DHT22;18342;52.132;21.048;2022-09-17T14:48:34;14.50;99.90
31769;DHT22;18342;52.132;21.048;2022-09-17T14:54:07;14.60;99.90
31769;DHT22;18342;52.132;21.048;2022-09-17T14:56:46;14.50;99.90
31769;DHT22;18342;52.132;21.048;2022-09-17T14:59:29;14.50;99.90
31769;DHT22;18342;52.132;21.048;2022-09-17T15:01:56;14.50;99.90
31769;DHT22;18342;52.132;21.048;2022-09-17T15:04:25;14.60;99.90
31769;DHT22;18342;52.132;21.048;2022-09-17T15:06:51;14.60;99.90
31769;DHT22;18342;52.132;21.048;2022-09-17T15:09:26;14.60;99.90
31769;DHT22;18342;52.132;21.048;2022-09-17T15:11:57;14.60;99.90
31769;DHT22;18342;52.132;21.048;2022-09-17T15:14:29;14.60;99.90
31769;DHT22;18342;52.132;21.048;2022-09-17T15:16:56;14.60;99.90
31769;DHT22;18342;52.132;21.048;2022-09-17T15:21:58;14.60;99.90
31769;DHT22;18342;52.132;21.048;2022-09-17T15:27:44;14.60;99.90
31769;DHT22;18342;52.132;21.048;2022-09-17T15:30:16;14.70;99.90
31769;DHT22;18342;52.132;21.048;2022-09-17T15:32:55;14.70;99.90
31769;DHT22;18342;52.132;21.048;2022-09-17T15:35:28;14.70;99.90
31769;DHT22;18342;52.132;21.048;2022-09-17T15:37:57;14.70;99.90
31769;DHT22;18342;52.132;21.048;2022-09-17T15:40:35;14.70;99.90
31769;DHT22;18342;52.132;21.048;2022-09-17T15:45:47;14.70;99.90
31769;DHT22;18342;52.132;21.048;2022-09-17T15:50:55;14.60;99.90
31769;DHT22;18342;52.132;21.048;2022-09-17T15:56:00;14.60;99.90
31769;DHT22;18342;52.132;21.048;2022-09-17T16:08:59;14.60;99.90
31769;DHT22;18342;52.132;21.048;2022-09-17T16:11:34;14.60;99.90
31769;DHT22;18342;52.132;21.048;2022-09-17T16:14:00;14.60;99.90
31769;DHT22;18342;52.132;21.048;2022-09-17T16:16:34;14.50;99.90
31769;DHT22;18342;52.132;21.048;2022-09-17T16:19:00;14.50;99.90
31769;DHT22;18342;52.132;21.048;2022-09-17T16:21:26;14.50;99.90
31769;DHT22;18342;52.132;21.048;2022-09-17T16:23:52;14.50;99.90
31769;DHT22;18342;52.132;21.048;2022-09-17T16:26:24;14.40;99.90
31769;DHT22;18342;52.132;21.048;2022-09-17T16:28:53;14.40;99.90
31769;DHT22;18342;52.132;21.048;2022-09-17T16:31:21;14.40;99.90
31769;DHT22;18342;52.132;21.048;2022-09-17T16:33:48;14.30;99.90
31769;DHT22;18342;52.132;21.048;2022-09-17T16:36:17;14.30;99.90
31769;DHT22;18342;52.132;21.048;2022-09-17T16:38:43;14.30;99.90
31769;DHT22;18342;52.132;21.048;2022-09-17T16:41:09;14.20;99.90
31769;DHT22;18342;52.132;21.048;2022-09-17T16:43:36;14.20;99.90
31769;DHT22;18342;52.132;21.048;2022-09-17T16:46:09;14.10;99.90
31769;DHT22;18342;52.132;21.048;2022-09-17T16:48:35;14.10;99.90
31769;DHT22;18342;52.132;21.048;2022-09-17T16:51:09;14.00;99.90
31769;DHT22;18342;52.132;21.048;2022-09-17T16:53:35;14.00;99.90
31769;DHT22;18342;52.132;21.048;2022-09-17T16:56:06;14.00;99.90
31769;DHT22;18342;52.132;21.048;2022-09-17T16:58:32;13.90;99.90
31769;DHT22;18342;52.132;21.048;2022-09-17T17:00:57;13.90;99.90
31769;DHT22;18342;52.132;21.048;2022-09-17T17:03:23;13.90;99.90
31769;DHT22;18342;52.132;21.048;2022-09-17T17:05:49;13.80;99.90
31769;DHT22;18342;52.132;21.048;2022-09-17T17:08:15;13.80;99.90
31769;DHT22;18342;52.132;21.048;2022-09-17T17:10:41;13.70;99.90
31769;DHT22;18342;52.132;21.048;2022-09-17T17:13:06;13.70;99.90
31769;DHT22;18342;52.132;21.048;2022-09-17T17:15:32;13.60;99.90
31769;DHT22;18342;52.132;21.048;2022-09-17T17:17:58;13.60;99.90
31769;DHT22;18342;52.132;21.048;2022-09-17T17:20:23;13.60;99.90
31769;DHT22;18342;52.132;21.048;2022-09-17T17:22:49;13.50;99.90
31769;DHT22;18342;52.132;21.048;2022-09-17T17:25:17;13.50;99.90
31769;DHT22;18342;52.132;21.048;2022-09-17T17:27:43;13.50;99.90
31769;DHT22;18342;52.132;21.048;2022-09-17T17:30:12;13.40;99.90
31769;DHT22;18342;52.132;21.048;2022-09-17T17:32:42;13.40;99.90
31769;DHT22;18342;52.132;21.048;2022-09-17T17:35:08;13.40;99.90
31769;DHT22;18342;52.132;21.048;2022-09-17T17:37:34;13.30;99.90
31769;DHT22;18342;52.132;21.048;2022-09-17T17:40:00;13.30;99.90
31769;DHT22;18342;52.132;21.048;2022-09-17T17:42:29;13.30;99.90
31769;DHT22;18342;52.132;21.048;2022-09-17T17:45:01;13.20;99.90
31769;DHT22;18342;52.132;21.048;2022-09-17T17:47:27;13.20;99.90
31769;DHT22;18342;52.132;21.048;2022-09-17T17:49:52;13.10;99.90
31769;DHT22;18342;52.132;21.048;2022-09-17T17:52:18;13.10;99.90
31769;DHT22;18342;52.132;21.048;2022-09-17T17:54:44;13.10;99.90
31769;DHT22;18342;52.132;21.048;2022-09-17T17:57:09;13.10;99.90
31769;DHT22;18342;52.132;21.048;2022-09-17T17:59:35;13.10;99.90
31769;DHT22;18342;52.132;21.048;2022-09-17T18:02:01;13.10;99.90
31769;DHT22;18342;52.132;21.048;2022-09-17T18:04:27;13.00;99.90
31769;DHT22;18342;52.132;21.048;2022-09-17T18:06:52;13.00;99.90
31769;DHT22;18342;52.132;21.048;2022-09-17T18:09:18;13.00;99.90
31769;DHT22;18342;52.132;21.048;2022-09-17T18:11:43;13.00;99.90
31769;DHT22;18342;52.132;21.048;2022-09-17T18:14:11;13.00;99.90
31769;DHT22;18342;52.132;21.048;2022-09-17T18:16:38;13.00;99.90
31769;DHT22;18342;52.132;21.048;2022-09-17T18:19:03;12.90;99.90
31769;DHT22;18342;52.132;21.048;2022-09-17T18:21:29;12.90;99.90
31769;DHT22;18342;52.132;21.048;2022-09-17T18:23:55;12.80;99.90
31769;DHT22;18342;52.132;21.048;2022-09-17T18:26:23;12.80;99.90
31769;DHT22;18342;52.132;21.048;2022-09-17T18:28:50;12.80;99.90
31769;DHT22;18342;52.132;21.048;2022-09-17T18:31:30;12.80;99.90
31769;DHT22;18342;52.132;21.048;2022-09-17T18:33:58;12.80;99.90
31769;DHT22;18342;52.132;21.048;2022-09-17T18:36:25;12.80;99.90
31769;DHT22;18342;52.132;21.048;2022-09-17T18:38:56;12.80;99.90
31769;DHT22;18342;52.132;21.048;2022-09-17T18:41:29;12.80;99.90
31769;DHT22;18342;52.132;21.048;2022-09-17T18:43:56;12.80;99.90
31769;DHT22;18342;52.132;21.048;2022-09-17T18:46:22;12.80;99.90
31769;DHT22;18342;52.132;21.048;2022-09-17T18:48:55;12.80;99.90
31769;DHT22;18342;52.132;21.048;2022-09-17T18:51:22;12.80;99.90
31769;DHT22;18342;52.132;21.048;2022-09-17T18:53:49;12.80;99.90
31769;DHT22;18342;52.132;21.048;2022-09-17T18:56:18;12.80;99.90
31769;DHT22;18342;52.132;21.048;2022-09-17T18:58:45;12.80;99.90
31769;DHT22;18342;52.132;21.048;2022-09-17T19:01:11;12.80;99.90
31769;DHT22;18342;52.132;21.048;2022-09-17T19:03:37;12.80;99.90
31769;DHT22;18342;52.132;21.048;2022-09-17T19:06:04;12.70;99.90
31769;DHT22;18342;52.132;21.048;2022-09-17T19:08:31;12.70;99.90
31769;DHT22;18342;52.132;21.048;2022-09-17T19:10:57;12.70;99.90
31769;DHT22;18342;52.132;21.048;2022-09-17T19:13:24;12.70;99.90
31769;DHT22;18342;52.132;21.048;2022-09-17T19:15:50;12.70;99.90
31769;DHT22;18342;52.132;21.048;2022-09-17T19:18:16;12.70;99.90
31769;DHT22;18342;52.132;21.048;2022-09-17T19:20:42;12.70;99.90
31769;DHT22;18342;52.132;21.048;2022-09-17T19:23:08;12.60;99.90
31769;DHT22;18342;52.132;21.048;2022-09-17T19:25:35;12.60;99.90
31769;DHT22;18342;52.132;21.048;2022-09-17T19:28:01;12.60;99.90
31769;DHT22;18342;52.132;21.048;2022-09-17T19:30:27;12.50;99.90
31769;DHT22;18342;52.132;21.048;2022-09-17T19:32:55;12.60;99.90
31769;DHT22;18342;52.132;21.048;2022-09-17T19:35:23;12.60;99.90
31769;DHT22;18342;52.132;21.048;2022-09-17T19:37:49;12.60;99.90
31769;DHT22;18342;52.132;21.048;2022-09-17T19:40:16;12.60;99.90
31769;DHT22;18342;52.132;21.048;2022-09-17T19:42:42;12.50;99.90